sensor_id;sensor_type;location;lat;lon;timestamp;P1;durP1;ratioP1;P2;durP2;ratioP2
5813;SDS011;2933;52.302;8.134;2022-12-11T00:00:09;76.87;;;21.47;;
5813;SDS011;2933;52.302;8.134;2022-12-11T00:05:12;81.23;;;22.93;;
5813;SDS011;2933;52.302;8.134;2022-12-11T00:10:14;76.30;;;22.10;;
5813;SDS011;2933;52.302;8.134;2022-12-11T00:15:16;80.97;;;22.13;;
5813;SDS011;2933;52.302;8.134;2022-12-11T00:20:18;77.30;;;19.13;;
5813;SDS011;2933;52.302;8.134;2022-12-11T00:25:20;71.80;;;22.53;;
5813;SDS011;2933;52.302;8.134;2022-12-11T00:30:21;84.37;;;23.10;;
5813;SDS011;2933;52.302;8.134;2022-12-11T00:35:24;88.07;;;21.47;;
5813;SDS011;2933;52.302;8.134;2022-12-11T00:40:26;84.77;;;22.63;;
5813;SDS011;2933;52.302;8.134;2022-12-11T00:45:27;93.77;;;23.00;;
5813;SDS011;2933;52.302;8.134;2022-12-11T00:50:31;98.33;;;24.60;;
5813;SDS011;2933;52.302;8.134;2022-12-11T00:55:35;102.07;;;24.10;;
5813;SDS011;2933;52.302;8.134;2022-12-11T01:00:37;93.33;;;25.37;;
5813;SDS011;2933;52.302;8.134;2022-12-11T01:05:49;94.77;;;25.03;;
5813;SDS011;2933;52.302;8.134;2022-12-11T01:10:58;101.20;;;26.87;;
5813;SDS011;2933;52.302;8.134;2022-12-11T01:16:04;93.80;;;23.60;;
5813;SDS011;2933;52.302;8.134;2022-12-11T01:21:10;103.37;;;25.33;;
5813;SDS011;2933;52.302;8.134;2022-12-11T01:26:13;99.00;;;24.67;;
5813;SDS011;2933;52.302;8.134;2022-12-11T01:31:16;111.90;;;26.80;;
5813;SDS011;2933;52.302;8.134;2022-12-11T01:36:20;107.70;;;26.70;;
5813;SDS011;2933;52.302;8.134;2022-12-11T01:41:22;110.93;;;24.77;;
5813;SDS011;2933;52.302;8.134;2022-12-11T01:46:24;102.47;;;24.13;;
5813;SDS011;2933;52.302;8.134;2022-12-11T01:51:27;96.33;;;24.97;;
5813;SDS011;2933;52.302;8.134;2022-12-11T01:56:31;109.60;;;23.40;;
5813;SDS011;2933;52.302;8.134;2022-12-11T02:01:37;105.00;;;24.30;;
5813;SDS011;2933;52.302;8.134;2022-12-11T02:06:43;90.17;;;23.20;;
5813;SDS011;2933;52.302;8.134;2022-12-11T02:11:48;103.93;;;23.93;;
5813;SDS011;2933;52.302;8.134;2022-12-11T02:16:58;91.07;;;22.17;;
5813;SDS011;2933;52.302;8.134;2022-12-11T02:22:06;97.70;;;21.97;;
5813;SDS011;2933;52.302;8.134;2022-12-11T02:27:16;92.30;;;21.07;;
5813;SDS011;2933;52.302;8.134;2022-12-11T02:32:30;87.07;;;20.80;;
5813;SDS011;2933;52.302;8.134;2022-12-11T02:37:38;74.30;;;20.60;;
5813;SDS011;2933;52.302;8.134;2022-12-11T02:42:44;77.97;;;19.90;;
5813;SDS011;2933;52.302;8.134;2022-12-11T02:47:49;100.50;;;22.00;;
5813;SDS011;2933;52.302;8.134;2022-12-11T02:52:52;82.57;;;19.90;;
5813;SDS011;2933;52.302;8.134;2022-12-11T02:57:59;95.77;;;20.00;;
5813;SDS011;2933;52.302;8.134;2022-12-11T03:03:06;74.47;;;18.70;;
5813;SDS011;2933;52.302;8.134;2022-12-11T03:08:08;82.87;;;20.47;;
5813;SDS011;2933;52.302;8.134;2022-12-11T03:13:10;78.87;;;19.00;;
5813;SDS011;2933;52.302;8.134;2022-12-11T03:18:16;66.73;;;17.43;;
5813;SDS011;2933;52.302;8.134;2022-12-11T03:23:28;70.10;;;16.53;;
5813;SDS011;2933;52.302;8.134;2022-12-11T03:28:33;72.07;;;17.20;;
5813;SDS011;2933;52.302;8.134;2022-12-11T03:33:44;68.23;;;17.70;;
5813;SDS011;2933;52.302;8.134;2022-12-11T03:38:50;60.17;;;16.87;;
5813;SDS011;2933;52.302;8.134;2022-12-11T03:43:56;57.67;;;15.60;;
5813;SDS011;2933;52.302;8.134;2022-12-11T03:49:02;54.63;;;16.13;;
5813;SDS011;2933;52.302;8.134;2022-12-11T03:54:08;47.83;;;14.90;;
5813;SDS011;2933;52.302;8.134;2022-12-11T03:59:10;40.53;;;12.37;;
5813;SDS011;2933;52.302;8.134;2022-12-11T04:04:14;41.70;;;13.10;;
5813;SDS011;2933;52.302;8.134;2022-12-11T04:09:15;57.43;;;13.20;;
5813;SDS011;2933;52.302;8.134;2022-12-11T04:14:17;40.30;;;11.80;;
5813;SDS011;2933;52.302;8.134;2022-12-11T04:19:37;53.60;;;13.40;;
5813;SDS011;2933;52.302;8.134;2022-12-11T04:24:56;53.23;;;12.03;;
5813;SDS011;2933;52.302;8.134;2022-12-11T04:29:58;51.07;;;11.87;;
5813;SDS011;2933;52.302;8.134;2022-12-11T04:35:01;46.47;;;12.90;;
5813;SDS011;2933;52.302;8.134;2022-12-11T04:40:03;48.63;;;12.57;;
5813;SDS011;2933;52.302;8.134;2022-12-11T04:45:05;40.10;;;11.07;;
5813;SDS011;2933;52.302;8.134;2022-12-11T04:50:10;47.33;;;11.53;;
5813;SDS011;2933;52.302;8.134;2022-12-11T04:55:13;42.27;;;12.10;;
5813;SDS011;2933;52.302;8.134;2022-12-11T05:00:15;44.33;;;12.07;;
5813;SDS011;2933;52.302;8.134;2022-12-11T05:05:18;42.87;;;11.40;;
5813;SDS011;2933;52.302;8.134;2022-12-11T05:10:20;52.23;;;11.20;;
5813;SDS011;2933;52.302;8.134;2022-12-11T05:15:22;34.13;;;11.30;;
5813;SDS011;2933;52.302;8.134;2022-12-11T05:20:25;44.27;;;11.50;;
5813;SDS011;2933;52.302;8.134;2022-12-11T05:25:27;33.97;;;11.27;;
5813;SDS011;2933;52.302;8.134;2022-12-11T05:30:28;40.23;;;11.30;;
5813;SDS011;2933;52.302;8.134;2022-12-11T05:35:31;32.60;;;10.67;;
5813;SDS011;2933;52.302;8.134;2022-12-11T05:40:32;44.53;;;10.73;;
5813;SDS011;2933;52.302;8.134;2022-12-11T05:45:34;49.67;;;12.30;;
5813;SDS011;2933;52.302;8.134;2022-12-11T05:50:37;42.30;;;12.20;;
5813;SDS011;2933;52.302;8.134;2022-12-11T05:55:39;47.10;;;12.27;;
5813;SDS011;2933;52.302;8.134;2022-12-11T06:00:41;36.70;;;12.17;;
5813;SDS011;2933;52.302;8.134;2022-12-11T06:05:44;33.87;;;10.90;;
5813;SDS011;2933;52.302;8.134;2022-12-11T06:10:46;41.73;;;10.97;;
5813;SDS011;2933;52.302;8.134;2022-12-11T06:15:48;34.23;;;11.10;;
5813;SDS011;2933;52.302;8.134;2022-12-11T06:20:51;40.23;;;11.10;;
5813;SDS011;2933;52.302;8.134;2022-12-11T06:25:53;37.70;;;10.83;;
5813;SDS011;2933;52.302;8.134;2022-12-11T06:30:57;32.97;;;10.10;;
5813;SDS011;2933;52.302;8.134;2022-12-11T06:36:02;38.50;;;10.13;;
5813;SDS011;2933;52.302;8.134;2022-12-11T06:41:04;33.53;;;8.37;;
5813;SDS011;2933;52.302;8.134;2022-12-11T06:46:08;28.63;;;9.70;;
5813;SDS011;2933;52.302;8.134;2022-12-11T06:51:13;38.87;;;9.97;;
5813;SDS011;2933;52.302;8.134;2022-12-11T06:56:16;25.63;;;9.50;;
5813;SDS011;2933;52.302;8.134;2022-12-11T07:01:18;23.90;;;10.10;;
5813;SDS011;2933;52.302;8.134;2022-12-11T07:06:23;21.57;;;8.07;;
5813;SDS011;2933;52.302;8.134;2022-12-11T07:11:25;24.97;;;7.80;;
5813;SDS011;2933;52.302;8.134;2022-12-11T07:16:32;22.73;;;8.10;;
5813;SDS011;2933;52.302;8.134;2022-12-11T07:21:39;28.13;;;8.33;;
5813;SDS011;2933;52.302;8.134;2022-12-11T07:26:43;28.50;;;9.57;;
5813;SDS011;2933;52.302;8.134;2022-12-11T07:31:45;20.97;;;8.70;;
5813;SDS011;2933;52.302;8.134;2022-12-11T07:36:48;39.70;;;9.00;;
5813;SDS011;2933;52.302;8.134;2022-12-11T07:41:50;23.30;;;8.43;;
5813;SDS011;2933;52.302;8.134;2022-12-11T07:46:52;21.07;;;6.97;;
5813;SDS011;2933;52.302;8.134;2022-12-11T07:51:55;16.00;;;5.87;;
5813;SDS011;2933;52.302;8.134;2022-12-11T07:56:56;25.10;;;7.30;;
5813;SDS011;2933;52.302;8.134;2022-12-11T08:01:58;26.87;;;8.00;;
5813;SDS011;2933;52.302;8.134;2022-12-11T08:07:01;21.20;;;7.43;;
5813;SDS011;2933;52.302;8.134;2022-12-11T08:12:03;22.37;;;7.57;;
5813;SDS011;2933;52.302;8.134;2022-12-11T08:17:04;18.63;;;6.90;;
5813;SDS011;2933;52.302;8.134;2022-12-11T08:22:08;16.10;;;7.13;;
5813;SDS011;2933;52.302;8.134;2022-12-11T08:27:09;20.10;;;7.73;;
5813;SDS011;2933;52.302;8.134;2022-12-11T08:32:11;21.00;;;7.60;;
5813;SDS011;2933;52.302;8.134;2022-12-11T08:37:17;22.67;;;7.73;;
5813;SDS011;2933;52.302;8.134;2022-12-11T08:42:18;20.50;;;7.63;;
5813;SDS011;2933;52.302;8.134;2022-12-11T08:47:20;25.03;;;8.77;;
5813;SDS011;2933;52.302;8.134;2022-12-11T08:52:23;28.77;;;8.37;;
5813;SDS011;2933;52.302;8.134;2022-12-11T08:57:25;14.30;;;6.60;;
5813;SDS011;2933;52.302;8.134;2022-12-11T09:02:31;15.37;;;6.70;;
5813;SDS011;2933;52.302;8.134;2022-12-11T09:07:37;16.93;;;7.77;;
5813;SDS011;2933;52.302;8.134;2022-12-11T09:12:38;21.50;;;7.47;;
5813;SDS011;2933;52.302;8.134;2022-12-11T09:17:40;19.47;;;6.57;;
5813;SDS011;2933;52.302;8.134;2022-12-11T09:22:43;23.83;;;7.67;;
5813;SDS011;2933;52.302;8.134;2022-12-11T09:27:45;18.07;;;7.50;;
5813;SDS011;2933;52.302;8.134;2022-12-11T09:32:48;23.00;;;7.47;;
5813;SDS011;2933;52.302;8.134;2022-12-11T09:37:51;19.87;;;6.90;;
5813;SDS011;2933;52.302;8.134;2022-12-11T09:42:53;29.03;;;8.27;;
5813;SDS011;2933;52.302;8.134;2022-12-11T09:47:58;25.60;;;8.23;;
5813;SDS011;2933;52.302;8.134;2022-12-11T09:53:04;23.10;;;7.80;;
5813;SDS011;2933;52.302;8.134;2022-12-11T09:58:13;22.80;;;8.13;;
5813;SDS011;2933;52.302;8.134;2022-12-11T10:03:27;20.70;;;7.13;;
5813;SDS011;2933;52.302;8.134;2022-12-11T10:08:44;22.57;;;7.83;;
5813;SDS011;2933;52.302;8.134;2022-12-11T10:13:54;17.70;;;7.63;;
5813;SDS011;2933;52.302;8.134;2022-12-11T10:19:04;20.33;;;7.43;;
5813;SDS011;2933;52.302;8.134;2022-12-11T10:24:10;23.93;;;8.33;;
5813;SDS011;2933;52.302;8.134;2022-12-11T10:29:16;24.20;;;8.17;;
5813;SDS011;2933;52.302;8.134;2022-12-11T10:34:19;23.63;;;6.97;;
5813;SDS011;2933;52.302;8.134;2022-12-11T10:39:29;22.13;;;8.10;;
5813;SDS011;2933;52.302;8.134;2022-12-11T10:44:31;30.17;;;8.50;;
5813;SDS011;2933;52.302;8.134;2022-12-11T10:49:33;18.23;;;7.90;;
5813;SDS011;2933;52.302;8.134;2022-12-11T10:54:38;20.20;;;8.10;;
5813;SDS011;2933;52.302;8.134;2022-12-11T10:59:45;22.50;;;8.23;;
5813;SDS011;2933;52.302;8.134;2022-12-11T11:04:48;20.47;;;8.07;;
5813;SDS011;2933;52.302;8.134;2022-12-11T11:10:02;21.20;;;7.27;;
5813;SDS011;2933;52.302;8.134;2022-12-11T11:15:09;25.60;;;8.90;;
5813;SDS011;2933;52.302;8.134;2022-12-11T11:20:13;19.40;;;8.30;;
5813;SDS011;2933;52.302;8.134;2022-12-11T11:25:18;30.20;;;9.27;;
5813;SDS011;2933;52.302;8.134;2022-12-11T11:30:22;28.93;;;9.63;;
5813;SDS011;2933;52.302;8.134;2022-12-11T11:35:26;22.57;;;9.17;;
5813;SDS011;2933;52.302;8.134;2022-12-11T11:40:32;23.03;;;8.70;;
5813;SDS011;2933;52.302;8.134;2022-12-11T11:45:39;19.27;;;7.50;;
5813;SDS011;2933;52.302;8.134;2022-12-11T11:50:46;27.93;;;8.80;;
5813;SDS011;2933;52.302;8.134;2022-12-11T11:55:56;29.53;;;9.50;;
5813;SDS011;2933;52.302;8.134;2022-12-11T12:01:03;31.60;;;10.17;;
5813;SDS011;2933;52.302;8.134;2022-12-11T12:06:06;26.00;;;9.30;;
5813;SDS011;2933;52.302;8.134;2022-12-11T12:11:18;24.83;;;9.40;;
5813;SDS011;2933;52.302;8.134;2022-12-11T12:16:31;28.03;;;9.43;;
5813;SDS011;2933;52.302;8.134;2022-12-11T12:21:42;28.20;;;9.90;;
5813;SDS011;2933;52.302;8.134;2022-12-11T12:26:50;25.00;;;11.20;;
5813;SDS011;2933;52.302;8.134;2022-12-11T12:32:02;37.20;;;11.80;;
5813;SDS011;2933;52.302;8.134;2022-12-11T12:37:11;33.33;;;11.80;;
5813;SDS011;2933;52.302;8.134;2022-12-11T12:42:25;35.17;;;11.33;;
5813;SDS011;2933;52.302;8.134;2022-12-11T12:47:35;32.47;;;10.57;;
5813;SDS011;2933;52.302;8.134;2022-12-11T12:52:38;25.07;;;9.80;;
5813;SDS011;2933;52.302;8.134;2022-12-11T12:57:44;23.33;;;8.40;;
5813;SDS011;2933;52.302;8.134;2022-12-11T13:02:48;24.67;;;8.83;;
5813;SDS011;2933;52.302;8.134;2022-12-11T13:07:53;26.23;;;9.00;;
5813;SDS011;2933;52.302;8.134;2022-12-11T13:12:59;22.50;;;8.20;;
5813;SDS011;2933;52.302;8.134;2022-12-11T13:18:02;29.13;;;9.20;;
5813;SDS011;2933;52.302;8.134;2022-12-11T13:23:08;33.30;;;9.30;;
5813;SDS011;2933;52.302;8.134;2022-12-11T13:28:22;19.07;;;7.73;;
5813;SDS011;2933;52.302;8.134;2022-12-11T13:33:27;26.70;;;8.93;;
5813;SDS011;2933;52.302;8.134;2022-12-11T13:38:30;27.97;;;8.60;;
5813;SDS011;2933;52.302;8.134;2022-12-11T13:43:33;28.50;;;10.13;;
5813;SDS011;2933;52.302;8.134;2022-12-11T13:48:35;26.80;;;8.97;;
5813;SDS011;2933;52.302;8.134;2022-12-11T13:53:39;21.53;;;8.57;;
5813;SDS011;2933;52.302;8.134;2022-12-11T13:58:42;27.50;;;9.60;;
5813;SDS011;2933;52.302;8.134;2022-12-11T14:03:46;24.67;;;8.93;;
5813;SDS011;2933;52.302;8.134;2022-12-11T14:08:54;23.77;;;8.30;;
5813;SDS011;2933;52.302;8.134;2022-12-11T14:14:03;22.77;;;8.60;;
5813;SDS011;2933;52.302;8.134;2022-12-11T14:19:07;19.07;;;8.60;;
5813;SDS011;2933;52.302;8.134;2022-12-11T14:24:11;25.73;;;8.63;;
5813;SDS011;2933;52.302;8.134;2022-12-11T14:29:22;29.43;;;9.60;;
5813;SDS011;2933;52.302;8.134;2022-12-11T14:34:25;26.13;;;8.50;;
5813;SDS011;2933;52.302;8.134;2022-12-11T14:39:33;31.40;;;10.23;;
5813;SDS011;2933;52.302;8.134;2022-12-11T14:44:39;23.33;;;9.10;;
5813;SDS011;2933;52.302;8.134;2022-12-11T14:49:49;25.23;;;8.60;;
5813;SDS011;2933;52.302;8.134;2022-12-11T14:54:55;20.63;;;7.60;;
5813;SDS011;2933;52.302;8.134;2022-12-11T15:00:03;31.80;;;10.57;;
5813;SDS011;2933;52.302;8.134;2022-12-11T15:05:13;30.07;;;8.60;;
5813;SDS011;2933;52.302;8.134;2022-12-11T15:10:21;29.13;;;9.00;;
5813;SDS011;2933;52.302;8.134;2022-12-11T15:15:26;22.53;;;9.37;;
5813;SDS011;2933;52.302;8.134;2022-12-11T15:20:37;23.60;;;7.93;;
5813;SDS011;2933;52.302;8.134;2022-12-11T15:25:39;31.37;;;8.10;;
5813;SDS011;2933;52.302;8.134;2022-12-11T15:30:40;29.80;;;8.63;;
5813;SDS011;2933;52.302;8.134;2022-12-11T15:35:51;19.10;;;8.10;;
5813;SDS011;2933;52.302;8.134;2022-12-11T15:40:54;27.70;;;10.07;;
5813;SDS011;2933;52.302;8.134;2022-12-11T15:45:56;24.57;;;8.60;;
5813;SDS011;2933;52.302;8.134;2022-12-11T15:50:59;27.93;;;9.40;;
5813;SDS011;2933;52.302;8.134;2022-12-11T15:56:02;22.50;;;7.20;;
5813;SDS011;2933;52.302;8.134;2022-12-11T16:01:04;21.77;;;8.80;;
5813;SDS011;2933;52.302;8.134;2022-12-11T16:06:09;32.13;;;8.93;;
5813;SDS011;2933;52.302;8.134;2022-12-11T16:11:12;38.70;;;10.57;;
5813;SDS011;2933;52.302;8.134;2022-12-11T16:16:14;25.30;;;9.63;;
5813;SDS011;2933;52.302;8.134;2022-12-11T16:21:16;20.03;;;8.83;;
5813;SDS011;2933;52.302;8.134;2022-12-11T16:26:18;29.67;;;11.20;;
5813;SDS011;2933;52.302;8.134;2022-12-11T16:31:20;31.23;;;10.00;;
5813;SDS011;2933;52.302;8.134;2022-12-11T16:36:23;29.43;;;9.30;;
5813;SDS011;2933;52.302;8.134;2022-12-11T16:41:25;25.37;;;9.77;;
5813;SDS011;2933;52.302;8.134;2022-12-11T16:46:26;29.27;;;11.07;;
5813;SDS011;2933;52.302;8.134;2022-12-11T16:51:30;33.27;;;11.20;;
5813;SDS011;2933;52.302;8.134;2022-12-11T16:56:31;25.33;;;10.73;;
5813;SDS011;2933;52.302;8.134;2022-12-11T17:01:33;32.50;;;10.70;;
5813;SDS011;2933;52.302;8.134;2022-12-11T17:06:36;39.90;;;12.90;;
5813;SDS011;2933;52.302;8.134;2022-12-11T17:11:37;35.17;;;11.23;;
5813;SDS011;2933;52.302;8.134;2022-12-11T17:16:39;27.43;;;11.93;;
5813;SDS011;2933;52.302;8.134;2022-12-11T17:21:42;34.10;;;14.00;;
5813;SDS011;2933;52.302;8.134;2022-12-11T17:26:44;39.60;;;13.80;;
5813;SDS011;2933;52.302;8.134;2022-12-11T17:31:46;36.80;;;11.80;;
5813;SDS011;2933;52.302;8.134;2022-12-11T17:36:49;36.53;;;12.70;;
5813;SDS011;2933;52.302;8.134;2022-12-11T17:41:51;44.60;;;13.40;;
5813;SDS011;2933;52.302;8.134;2022-12-11T17:46:52;40.27;;;12.80;;
5813;SDS011;2933;52.302;8.134;2022-12-11T17:51:55;34.27;;;12.67;;
5813;SDS011;2933;52.302;8.134;2022-12-11T17:56:57;36.70;;;13.70;;
5813;SDS011;2933;52.302;8.134;2022-12-11T18:01:58;33.70;;;12.27;;
5813;SDS011;2933;52.302;8.134;2022-12-11T18:07:01;41.10;;;13.17;;
5813;SDS011;2933;52.302;8.134;2022-12-11T18:12:03;41.43;;;13.43;;
5813;SDS011;2933;52.302;8.134;2022-12-11T18:17:05;35.17;;;12.70;;
5813;SDS011;2933;52.302;8.134;2022-12-11T18:22:08;38.60;;;13.47;;
5813;SDS011;2933;52.302;8.134;2022-12-11T18:27:10;47.13;;;17.30;;
5813;SDS011;2933;52.302;8.134;2022-12-11T18:32:13;37.60;;;12.90;;
5813;SDS011;2933;52.302;8.134;2022-12-11T18:37:16;36.57;;;13.70;;
5813;SDS011;2933;52.302;8.134;2022-12-11T18:42:18;33.53;;;13.83;;
5813;SDS011;2933;52.302;8.134;2022-12-11T18:47:19;34.77;;;12.53;;
5813;SDS011;2933;52.302;8.134;2022-12-11T18:52:22;33.67;;;13.93;;
5813;SDS011;2933;52.302;8.134;2022-12-11T18:57:23;35.23;;;14.27;;
5813;SDS011;2933;52.302;8.134;2022-12-11T19:02:25;44.40;;;13.50;;
5813;SDS011;2933;52.302;8.134;2022-12-11T19:07:28;41.53;;;14.40;;
5813;SDS011;2933;52.302;8.134;2022-12-11T19:12:29;48.53;;;14.63;;
5813;SDS011;2933;52.302;8.134;2022-12-11T19:17:31;38.40;;;14.87;;
5813;SDS011;2933;52.302;8.134;2022-12-11T19:22:34;34.53;;;14.93;;
5813;SDS011;2933;52.302;8.134;2022-12-11T19:27:36;38.77;;;14.20;;
5813;SDS011;2933;52.302;8.134;2022-12-11T19:32:37;38.77;;;14.63;;
5813;SDS011;2933;52.302;8.134;2022-12-11T19:37:40;49.47;;;17.13;;
5813;SDS011;2933;52.302;8.134;2022-12-11T19:42:42;45.90;;;14.70;;
5813;SDS011;2933;52.302;8.134;2022-12-11T19:47:43;31.23;;;12.30;;
5813;SDS011;2933;52.302;8.134;2022-12-11T19:52:46;43.23;;;15.30;;
5813;SDS011;2933;52.302;8.134;2022-12-11T19:57:48;41.67;;;13.93;;
5813;SDS011;2933;52.302;8.134;2022-12-11T20:02:50;41.50;;;14.47;;
5813;SDS011;2933;52.302;8.134;2022-12-11T20:07:53;42.60;;;13.87;;
5813;SDS011;2933;52.302;8.134;2022-12-11T20:12:54;49.43;;;16.10;;
5813;SDS011;2933;52.302;8.134;2022-12-11T20:17:59;42.47;;;14.13;;
5813;SDS011;2933;52.302;8.134;2022-12-11T20:23:03;39.47;;;13.20;;
5813;SDS011;2933;52.302;8.134;2022-12-11T20:28:05;37.60;;;12.40;;
5813;SDS011;2933;52.302;8.134;2022-12-11T20:33:06;36.80;;;12.87;;
5813;SDS011;2933;52.302;8.134;2022-12-11T20:38:09;32.80;;;12.87;;
5813;SDS011;2933;52.302;8.134;2022-12-11T20:43:11;35.70;;;12.23;;
5813;SDS011;2933;52.302;8.134;2022-12-11T20:48:13;33.60;;;13.90;;
5813;SDS011;2933;52.302;8.134;2022-12-11T20:53:16;33.97;;;14.87;;
5813;SDS011;2933;52.302;8.134;2022-12-11T20:58:17;41.40;;;15.00;;
5813;SDS011;2933;52.302;8.134;2022-12-11T21:03:20;37.93;;;13.40;;
5813;SDS011;2933;52.302;8.134;2022-12-11T21:08:22;43.10;;;13.80;;
5813;SDS011;2933;52.302;8.134;2022-12-11T21:13:24;38.77;;;13.60;;
5813;SDS011;2933;52.302;8.134;2022-12-11T21:18:26;43.83;;;15.47;;
5813;SDS011;2933;52.302;8.134;2022-12-11T21:23:29;34.97;;;14.27;;
5813;SDS011;2933;52.302;8.134;2022-12-11T21:28:30;30.60;;;13.07;;
5813;SDS011;2933;52.302;8.134;2022-12-11T21:33:33;34.70;;;13.40;;
5813;SDS011;2933;52.302;8.134;2022-12-11T21:38:36;33.67;;;13.77;;
5813;SDS011;2933;52.302;8.134;2022-12-11T21:43:39;36.20;;;14.30;;
5813;SDS011;2933;52.302;8.134;2022-12-11T21:48:41;29.87;;;12.97;;
5813;SDS011;2933;52.302;8.134;2022-12-11T21:53:45;36.37;;;14.07;;
5813;SDS011;2933;52.302;8.134;2022-12-11T21:58:46;51.23;;;13.80;;
5813;SDS011;2933;52.302;8.134;2022-12-11T22:03:49;36.43;;;13.33;;
5813;SDS011;2933;52.302;8.134;2022-12-11T22:08:53;41.20;;;14.47;;
5813;SDS011;2933;52.302;8.134;2022-12-11T22:13:55;38.03;;;14.10;;
5813;SDS011;2933;52.302;8.134;2022-12-11T22:18:57;38.77;;;14.50;;
5813;SDS011;2933;52.302;8.134;2022-12-11T22:23:59;38.07;;;14.40;;
5813;SDS011;2933;52.302;8.134;2022-12-11T22:29:01;30.07;;;13.20;;
5813;SDS011;2933;52.302;8.134;2022-12-11T22:34:03;40.27;;;15.77;;
5813;SDS011;2933;52.302;8.134;2022-12-11T22:39:06;36.17;;;14.47;;
5813;SDS011;2933;52.302;8.134;2022-12-11T22:44:09;37.77;;;14.63;;
5813;SDS011;2933;52.302;8.134;2022-12-11T22:49:14;41.53;;;14.73;;
5813;SDS011;2933;52.302;8.134;2022-12-11T22:54:17;33.00;;;14.13;;
5813;SDS011;2933;52.302;8.134;2022-12-11T22:59:18;39.50;;;15.40;;
5813;SDS011;2933;52.302;8.134;2022-12-11T23:04:20;39.07;;;14.73;;
5813;SDS011;2933;52.302;8.134;2022-12-11T23:09:23;46.93;;;15.80;;
5813;SDS011;2933;52.302;8.134;2022-12-11T23:14:24;40.37;;;14.27;;
5813;SDS011;2933;52.302;8.134;2022-12-11T23:19:26;38.83;;;15.30;;
5813;SDS011;2933;52.302;8.134;2022-12-11T23:24:29;38.57;;;15.40;;
5813;SDS011;2933;52.302;8.134;2022-12-11T23:29:30;41.30;;;15.80;;
5813;SDS011;2933;52.302;8.134;2022-12-11T23:34:32;35.23;;;15.53;;
5813;SDS011;2933;52.302;8.134;2022-12-11T23:39:35;44.87;;;16.07;;
5813;SDS011;2933;52.302;8.134;2022-12-11T23:44:36;51.27;;;18.03;;
5813;SDS011;2933;52.302;8.134;2022-12-11T23:49:38;44.57;;;16.00;;
5813;SDS011;2933;52.302;8.134;2022-12-11T23:54:41;43.60;;;16.67;;
5813;SDS011;2933;52.302;8.134;2022-12-11T23:59:42;42.00;;;16.80;;
